This is the latest recevied weather packets stored in our database for station/object OK1FET-14. If no packets are shown the sender has not sent any weather packets the latest 10 day(s).
| Time | Temp. | Humidity | Pressure | Rain* | Wind** | Luminosity | Snow |
|---|---|---|---|---|---|---|---|
| 1788599382 | 17.22° C | 62% | 1021.3 hPa | - | - | - | - |
| 1788599382 | 17.22° C | 62% | 1021.3 hPa | - | - | - | - |
| 1788599382 | 17.22° C | 62% | 1021.3 hPa | - | - | - | - |
| 1788599101 | 18.33° C | 60% | 1021.3 hPa | - | - | - | - |
| 1788599101 | 18.33° C | 60% | 1021.3 hPa | - | - | - | - |
| 1788599101 | 18.33° C | 60% | 1021.3 hPa | - | - | - | - |
| 1788599101 | 18.33° C | 60% | 1021.3 hPa | - | - | - | - |
| 1788598821 | 16.67° C | 65% | 1021.3 hPa | - | - | - | - |
| 1788598821 | 16.67° C | 65% | 1021.3 hPa | - | - | - | - |
| 1788598821 | 16.67° C | 65% | 1021.3 hPa | - | - | - | - |
| 1788598821 | 16.67° C | 65% | 1021.3 hPa | - | - | - | - |
| 1788598540 | 16.67° C | 66% | 1021.2 hPa | - | - | - | - |
| 1788598540 | 16.67° C | 66% | 1021.2 hPa | - | - | - | - |
| 1788598259 | 16.67° C | 66% | 1021 hPa | - | - | - | - |
| 1788598259 | 16.67° C | 66% | 1021 hPa | - | - | - | - |
| 1788598259 | 16.67° C | 66% | 1021 hPa | - | - | - | - |
| 1788597979 | 17.22° C | 70% | 1021.3 hPa | - | - | - | - |
| 1788597979 | 17.22° C | 70% | 1021.3 hPa | - | - | - | - |
| 1788597698 | 16.11° C | 75% | 1021.2 hPa | - | - | - | - |
| 1788597698 | 16.11° C | 75% | 1021.2 hPa | - | - | - | - |
| 1788597418 | 15.56° C | 84% | 1021.2 hPa | - | - | - | - |
| 1788597418 | 15.56° C | 84% | 1021.2 hPa | - | - | - | - |
| 1788597418 | 15.56° C | 84% | 1021.2 hPa | - | - | - | - |
| 1788597137 | 16.67° C | 74% | 1021.2 hPa | - | - | - | - |
| 1788597137 | 16.67° C | 74% | 1021.2 hPa | - | - | - | - |
* Rain since midnight (hover to see other rain measurements)
** Current wind speed in m/s (hover to see current wind gust speed)